KBNA/BNA METAR and TAF weather

Enter ICAO airport designator
Station Type Date Time Source
KBNA METAR 2022/10/01 06:53 UTC NOAA

KBNA 010653Z 36007KT 10SM CLR 13/06 A2998 RMK AO2 SLP147 T01280056


Station Type Date Time Source
KBNA Decoded METAR 2022/10/01 06:53 UTC NOAA

NASHVILLE INTERNATIONAL AIRPORT, TN, United States (KBNA) 36-07N 086-41W 210M
Oct 01, 2022 - 02:53 AM EDT / 2022.10.01 0653 UTC
Wind: from the N (360 degrees) at 8 MPH (7 KT):0
Visibility: 10 mile(s):0
Sky conditions: clear
Temperature: 55.0 F (12.8 C)
Dew Point: 42.1 F (5.6 C)
Relative Humidity: 61%
Pressure (altimeter): 29.98 in. Hg (1015 hPa)
ob: KBNA 010653Z 36007KT 10SM CLR 13/06 A2998 RMK AO2 SLP147 T01280056
cycle: 7

Station Type Date Time Source
KBNA TAF 2022/10/01 06:42 UTC NOAA

TAF KBNA 010539Z 0106/0206 36006KT P6SM SKC
FM011600 01013G19KT P6SM SKC
FM020200 36005KT P6SM SKC

Example: see airport list